sensor_id;sensor_type;location;lat;lon;timestamp;temperature;humidity
14154;DHT22;7157;53.144;7.570;2023-03-23T00:07:31;11.78;105.58
14154;DHT22;7157;53.144;7.570;2023-03-23T00:17:35;11.75;105.88
14154;DHT22;7157;53.144;7.570;2023-03-23T00:27:37;11.74;106.02
14154;DHT22;7157;53.144;7.570;2023-03-23T00:37:40;11.81;105.50
14154;DHT22;7157;53.144;7.570;2023-03-23T00:47:41;11.81;105.10
14154;DHT22;7157;53.144;7.570;2023-03-23T00:57:48;11.92;104.45
14154;DHT22;7157;53.144;7.570;2023-03-23T01:07:51;11.89;103.92
14154;DHT22;7157;53.144;7.570;2023-03-23T01:17:55;12.17;102.91
14154;DHT22;7157;53.144;7.570;2023-03-23T01:27:57;12.14;101.83
14154;DHT22;7157;53.144;7.570;2023-03-23T01:38:01;12.23;101.34
14154;DHT22;7157;53.144;7.570;2023-03-23T01:48:07;12.23;101.54
14154;DHT22;7157;53.144;7.570;2023-03-23T01:58:11;12.19;101.05
14154;DHT22;7157;53.144;7.570;2023-03-23T02:08:14;12.11;99.96
14154;DHT22;7157;53.144;7.570;2023-03-23T02:18:29;12.19;98.16
14154;DHT22;7157;53.144;7.570;2023-03-23T02:29:18;12.28;97.69
14154;DHT22;7157;53.144;7.570;2023-03-23T02:39:29;12.22;98.03
14154;DHT22;7157;53.144;7.570;2023-03-23T02:49:33;12.38;98.31
14154;DHT22;7157;53.144;7.570;2023-03-23T02:59:39;12.42;97.97
14154;DHT22;7157;53.144;7.570;2023-03-23T03:09:47;12.46;96.93
14154;DHT22;7157;53.144;7.570;2023-03-23T03:19:52;12.49;97.42
14154;DHT22;7157;53.144;7.570;2023-03-23T03:29:59;12.50;96.45
14154;DHT22;7157;53.144;7.570;2023-03-23T03:40:09;12.33;95.41
14154;DHT22;7157;53.144;7.570;2023-03-23T03:50:12;12.59;95.28
14154;DHT22;7157;53.144;7.570;2023-03-23T04:00:16;12.79;95.94
14154;DHT22;7157;53.144;7.570;2023-03-23T04:10:20;12.62;95.04
14154;DHT22;7157;53.144;7.570;2023-03-23T04:20:24;12.65;94.63
14154;DHT22;7157;53.144;7.570;2023-03-23T04:30:27;12.59;93.94
14154;DHT22;7157;53.144;7.570;2023-03-23T04:40:32;12.76;94.02
14154;DHT22;7157;53.144;7.570;2023-03-23T04:50:36;12.79;95.13
14154;DHT22;7157;53.144;7.570;2023-03-23T05:00:40;12.88;94.77
14154;DHT22;7157;53.144;7.570;2023-03-23T05:10:50;12.88;94.34
14154;DHT22;7157;53.144;7.570;2023-03-23T05:20:53;12.66;94.07
14154;DHT22;7157;53.144;7.570;2023-03-23T05:30:55;12.78;94.14
14154;DHT22;7157;53.144;7.570;2023-03-23T05:40:59;12.15;97.13
14154;DHT22;7157;53.144;7.570;2023-03-23T05:51:01;11.12;100.56
14154;DHT22;7157;53.144;7.570;2023-03-23T06:01:07;10.70;105.43
14154;DHT22;7157;53.144;7.570;2023-03-23T06:11:09;10.98;104.66
14154;DHT22;7157;53.144;7.570;2023-03-23T06:21:12;11.30;103.44
14154;DHT22;7157;53.144;7.570;2023-03-23T06:31:14;11.53;101.32
14154;DHT22;7157;53.144;7.570;2023-03-23T06:41:19;11.61;101.76
14154;DHT22;7157;53.144;7.570;2023-03-23T06:51:21;11.59;100.16
14154;DHT22;7157;53.144;7.570;2023-03-23T07:01:24;11.76;98.00
14154;DHT22;7157;53.144;7.570;2023-03-23T07:11:25;11.78;96.37
14154;DHT22;7157;53.144;7.570;2023-03-23T07:21:29;12.08;95.26
14154;DHT22;7157;53.144;7.570;2023-03-23T07:31:30;12.14;91.60
14154;DHT22;7157;53.144;7.570;2023-03-23T07:41:34;12.37;91.09
14154;DHT22;7157;53.144;7.570;2023-03-23T07:51:36;12.42;90.63
14154;DHT22;7157;53.144;7.570;2023-03-23T08:01:39;12.53;92.74
14154;DHT22;7157;53.144;7.570;2023-03-23T08:11:42;12.74;90.18
14154;DHT22;7157;53.144;7.570;2023-03-23T08:21:45;13.19;89.59
14154;DHT22;7157;53.144;7.570;2023-03-23T08:31:46;13.44;86.58
14154;DHT22;7157;53.144;7.570;2023-03-23T08:41:49;13.55;86.16
14154;DHT22;7157;53.144;7.570;2023-03-23T08:51:51;13.49;84.39
14154;DHT22;7157;53.144;7.570;2023-03-23T09:01:54;13.48;80.98
14154;DHT22;7157;53.144;7.570;2023-03-23T09:11:56;13.53;81.39
14154;DHT22;7157;53.144;7.570;2023-03-23T09:22:00;13.33;82.00
14154;DHT22;7157;53.144;7.570;2023-03-23T09:32:02;13.56;79.28
14154;DHT22;7157;53.144;7.570;2023-03-23T09:42:16;13.86;76.22
14154;DHT22;7157;53.144;7.570;2023-03-23T09:52:21;13.84;78.47
14154;DHT22;7157;53.144;7.570;2023-03-23T10:02:28;13.63;82.01
14154;DHT22;7157;53.144;7.570;2023-03-23T10:12:36;13.82;82.42
14154;DHT22;7157;53.144;7.570;2023-03-23T10:22:48;14.44;78.21
14154;DHT22;7157;53.144;7.570;2023-03-23T10:32:53;15.18;77.32
14154;DHT22;7157;53.144;7.570;2023-03-23T10:42:58;15.16;75.00
14154;DHT22;7157;53.144;7.570;2023-03-23T10:53:01;15.84;73.13
14154;DHT22;7157;53.144;7.570;2023-03-23T11:03:22;15.39;66.88
14154;DHT22;7157;53.144;7.570;2023-03-23T11:13:29;14.92;65.92
14154;DHT22;7157;53.144;7.570;2023-03-23T11:23:34;15.38;68.86
14154;DHT22;7157;53.144;7.570;2023-03-23T11:33:38;14.78;73.32
14154;DHT22;7157;53.144;7.570;2023-03-23T11:43:46;14.22;71.85
14154;DHT22;7157;53.144;7.570;2023-03-23T11:53:54;24.71;40.25
14154;DHT22;7157;53.144;7.570;2023-03-23T12:04:08;21.47;46.86
14154;DHT22;7157;53.144;7.570;2023-03-23T12:14:18;26.55;32.80
14154;DHT22;7157;53.144;7.570;2023-03-23T12:24:32;27.81;32.27
14154;DHT22;7157;53.144;7.570;2023-03-23T12:34:44;26.62;31.91
14154;DHT22;7157;53.144;7.570;2023-03-23T12:44:53;22.60;39.15
14154;DHT22;7157;53.144;7.570;2023-03-23T12:55:00;19.41;45.93
14154;DHT22;7157;53.144;7.570;2023-03-23T13:05:08;20.99;42.53
14154;DHT22;7157;53.144;7.570;2023-03-23T13:15:22;19.52;45.94
14154;DHT22;7157;53.144;7.570;2023-03-23T13:25:40;17.30;46.71
14154;DHT22;7157;53.144;7.570;2023-03-23T13:35:43;16.11;53.68
14154;DHT22;7157;53.144;7.570;2023-03-23T13:45:47;17.33;51.59
14154;DHT22;7157;53.144;7.570;2023-03-23T13:55:51;16.64;53.28
14154;DHT22;7157;53.144;7.570;2023-03-23T14:06:04;17.40;50.39
14154;DHT22;7157;53.144;7.570;2023-03-23T14:16:15;18.34;49.82
14154;DHT22;7157;53.144;7.570;2023-03-23T14:26:20;18.65;49.80
14154;DHT22;7157;53.144;7.570;2023-03-23T14:36:23;19.38;49.30
14154;DHT22;7157;53.144;7.570;2023-03-23T14:46:27;18.68;49.68
14154;DHT22;7157;53.144;7.570;2023-03-23T14:56:34;18.18;52.69
14154;DHT22;7157;53.144;7.570;2023-03-23T15:06:39;17.20;53.23
14154;DHT22;7157;53.144;7.570;2023-03-23T15:16:46;16.15;53.50
14154;DHT22;7157;53.144;7.570;2023-03-23T15:26:50;17.03;53.43
14154;DHT22;7157;53.144;7.570;2023-03-23T15:36:57;16.72;57.57
14154;DHT22;7157;53.144;7.570;2023-03-23T15:47:13;16.60;57.34
14154;DHT22;7157;53.144;7.570;2023-03-23T15:57:15;16.14;59.42
14154;DHT22;7157;53.144;7.570;2023-03-23T16:07:22;16.30;59.97
14154;DHT22;7157;53.144;7.570;2023-03-23T16:17:25;16.19;60.69
14154;DHT22;7157;53.144;7.570;2023-03-23T16:27:29;16.29;60.52
14154;DHT22;7157;53.144;7.570;2023-03-23T16:37:32;15.62;62.66
14154;DHT22;7157;53.144;7.570;2023-03-23T16:47:36;15.68;62.39
14154;DHT22;7157;53.144;7.570;2023-03-23T16:57:39;15.52;63.74
14154;DHT22;7157;53.144;7.570;2023-03-23T17:07:45;15.16;65.77
14154;DHT22;7157;53.144;7.570;2023-03-23T17:17:48;15.00;66.76
14154;DHT22;7157;53.144;7.570;2023-03-23T17:27:52;14.66;68.68
14154;DHT22;7157;53.144;7.570;2023-03-23T17:37:55;14.36;70.71
14154;DHT22;7157;53.144;7.570;2023-03-23T17:47:59;14.18;73.09
14154;DHT22;7157;53.144;7.570;2023-03-23T17:58:02;14.01;75.54
14154;DHT22;7157;53.144;7.570;2023-03-23T18:08:06;13.90;77.85
14154;DHT22;7157;53.144;7.570;2023-03-23T18:18:09;13.67;79.31
14154;DHT22;7157;53.144;7.570;2023-03-23T18:28:13;13.71;78.98
14154;DHT22;7157;53.144;7.570;2023-03-23T18:38:17;13.73;78.70
14154;DHT22;7157;53.144;7.570;2023-03-23T18:48:21;13.68;78.98
14154;DHT22;7157;53.144;7.570;2023-03-23T18:58:25;13.64;79.66
14154;DHT22;7157;53.144;7.570;2023-03-23T19:08:29;13.68;80.36
14154;DHT22;7157;53.144;7.570;2023-03-23T19:18:32;13.51;81.70
14154;DHT22;7157;53.144;7.570;2023-03-23T19:28:36;13.44;82.46
14154;DHT22;7157;53.144;7.570;2023-03-23T19:38:41;13.58;82.31
14154;DHT22;7157;53.144;7.570;2023-03-23T19:48:45;13.35;83.71
14154;DHT22;7157;53.144;7.570;2023-03-23T19:58:49;13.66;83.10
14154;DHT22;7157;53.144;7.570;2023-03-23T20:08:53;13.61;83.66
14154;DHT22;7157;53.144;7.570;2023-03-23T20:18:56;13.63;83.97
14154;DHT22;7157;53.144;7.570;2023-03-23T20:29:02;13.66;84.46
14154;DHT22;7157;53.144;7.570;2023-03-23T20:39:09;13.58;85.49
14154;DHT22;7157;53.144;7.570;2023-03-23T20:49:13;13.54;85.95
14154;DHT22;7157;53.144;7.570;2023-03-23T20:59:18;13.46;86.90
14154;DHT22;7157;53.144;7.570;2023-03-23T21:09:23;13.37;88.37
14154;DHT22;7157;53.144;7.570;2023-03-23T21:19:27;13.37;88.76
14154;DHT22;7157;53.144;7.570;2023-03-23T21:29:31;13.36;89.30
14154;DHT22;7157;53.144;7.570;2023-03-23T21:39:34;13.17;90.34
14154;DHT22;7157;53.144;7.570;2023-03-23T21:49:38;12.76;93.62
14154;DHT22;7157;53.144;7.570;2023-03-23T21:59:41;12.62;96.45
14154;DHT22;7157;53.144;7.570;2023-03-23T22:09:45;12.53;98.14
14154;DHT22;7157;53.144;7.570;2023-03-23T22:19:48;12.35;100.58
14154;DHT22;7157;53.144;7.570;2023-03-23T22:29:52;12.47;100.47
14154;DHT22;7157;53.144;7.570;2023-03-23T22:39:55;12.48;100.33
14154;DHT22;7157;53.144;7.570;2023-03-23T22:49:59;12.45;100.04
14154;DHT22;7157;53.144;7.570;2023-03-23T23:00:03;12.58;98.87
14154;DHT22;7157;53.144;7.570;2023-03-23T23:10:09;12.62;98.74
14154;DHT22;7157;53.144;7.570;2023-03-23T23:20:12;12.63;98.73
14154;DHT22;7157;53.144;7.570;2023-03-23T23:30:17;12.69;98.42
14154;DHT22;7157;53.144;7.570;2023-03-23T23:40:19;12.64;98.75
14154;DHT22;7157;53.144;7.570;2023-03-23T23:50:24;12.57;99.15
